createdAt,value
2022-09-06T00:02:20.334Z,17.15
2022-09-06T00:04:48.564Z,17.20
2022-09-06T00:07:15.671Z,17.23
2022-09-06T00:09:42.833Z,17.29
2022-09-06T00:12:09.954Z,17.18
2022-09-06T00:14:37.056Z,17.12
2022-09-06T00:17:04.196Z,17.07
2022-09-06T00:19:31.296Z,17.04
2022-09-06T00:21:58.432Z,17.05
2022-09-06T00:24:25.544Z,16.96
2022-09-06T00:26:52.675Z,16.94
2022-09-06T00:29:19.815Z,17.00
2022-09-06T00:31:46.914Z,17.00
2022-09-06T00:34:14.036Z,16.96
2022-09-06T00:36:41.218Z,16.94
2022-09-06T00:39:08.320Z,16.91
2022-09-06T00:41:35.414Z,16.87
2022-09-06T00:44:02.689Z,16.73
2022-09-06T00:46:31.151Z,16.66
2022-09-06T00:49:05.351Z,16.65
2022-09-06T00:51:33.938Z,16.74
2022-09-06T00:54:05.876Z,16.74
2022-09-06T00:56:39.953Z,16.66
2022-09-06T00:59:07.369Z,16.59
2022-09-06T01:01:34.629Z,16.58
2022-09-06T01:04:02.590Z,16.53
2022-09-06T01:06:44.207Z,16.50
2022-09-06T01:09:34.298Z,16.53
2022-09-06T01:12:07.235Z,16.59
2022-09-06T01:14:52.338Z,16.53
2022-09-06T01:17:34.624Z,16.49
2022-09-06T01:20:20.200Z,16.46
2022-09-06T01:23:06.036Z,16.37
2022-09-06T01:25:42.940Z,16.26
2022-09-06T01:28:39.589Z,16.16
2022-09-06T01:31:32.034Z,16.14
2022-09-06T01:34:08.113Z,16.12
2022-09-06T01:37:13.693Z,16.17
2022-09-06T01:39:41.911Z,16.16
2022-09-06T01:42:20.902Z,16.05
2022-09-06T01:45:15.227Z,15.97
2022-09-06T01:47:45.177Z,15.99
2022-09-06T01:50:30.659Z,16.05
2022-09-06T01:53:34.966Z,16.07
2022-09-06T01:56:08.593Z,16.11
2022-09-06T01:58:41.751Z,16.09
2022-09-06T02:01:23.679Z,16.14
2022-09-06T02:04:24.828Z,16.13
2022-09-06T02:07:00.394Z,16.16
2022-09-06T02:09:27.891Z,16.16
2022-09-06T02:11:57.851Z,16.10
2022-09-06T02:14:35.355Z,16.02
2022-09-06T02:17:04.071Z,15.98
2022-09-06T02:19:37.767Z,15.93
2022-09-06T02:22:08.015Z,15.94
2022-09-06T02:24:37.133Z,15.87
2022-09-06T02:27:04.454Z,15.86
2022-09-06T02:29:31.602Z,15.90
2022-09-06T02:32:03.658Z,15.90
2022-09-06T02:34:30.829Z,15.92
2022-09-06T02:36:58.026Z,15.93
2022-09-06T02:39:25.183Z,15.91
2022-09-06T02:41:52.475Z,15.95
2022-09-06T02:44:20.019Z,15.91
2022-09-06T02:46:47.124Z,15.89
2022-09-06T02:49:14.233Z,15.83
2022-09-06T02:51:41.361Z,15.84
2022-09-06T02:54:08.980Z,15.88
2022-09-06T02:56:36.631Z,15.81
2022-09-06T02:59:07.058Z,15.82
2022-09-06T03:01:34.707Z,15.83
2022-09-06T03:04:02.202Z,15.80
2022-09-06T03:06:30.892Z,15.73
2022-09-06T03:08:59.932Z,15.73
2022-09-06T03:11:27.732Z,15.68
2022-09-06T03:13:54.899Z,15.60
2022-09-06T03:16:22.634Z,15.61
2022-09-06T03:18:49.784Z,15.64
2022-09-06T03:21:16.915Z,15.63
2022-09-06T03:23:45.039Z,15.57
2022-09-06T03:26:12.169Z,15.62
2022-09-06T03:28:39.530Z,15.56
2022-09-06T03:31:06.719Z,15.58
2022-09-06T03:33:34.007Z,15.58
2022-09-06T03:36:03.040Z,15.60
2022-09-06T03:38:30.202Z,15.58
2022-09-06T03:40:57.626Z,15.59
2022-09-06T03:43:25.875Z,15.61
2022-09-06T03:45:55.425Z,15.66
2022-09-06T03:48:24.273Z,15.50
2022-09-06T03:50:54.262Z,15.40
2022-09-06T03:53:22.359Z,15.39
2022-09-06T03:55:52.092Z,15.37
2022-09-06T03:58:21.065Z,15.32
2022-09-06T04:00:48.352Z,15.34
2022-09-06T04:03:15.682Z,15.45
2022-09-06T04:05:46.471Z,15.48
2022-09-06T04:08:13.666Z,15.39
2022-09-06T04:10:40.993Z,15.36
2022-09-06T04:13:08.101Z,15.36
2022-09-06T04:15:35.228Z,15.39
2022-09-06T04:18:07.195Z,15.38
2022-09-06T04:20:36.355Z,15.40
2022-09-06T04:23:04.043Z,15.40
2022-09-06T04:25:31.443Z,15.38
2022-09-06T04:27:58.959Z,15.29
2022-09-06T04:30:26.055Z,15.22
2022-09-06T04:32:53.171Z,15.25
2022-09-06T04:35:20.324Z,15.23
2022-09-06T04:37:47.516Z,15.25
2022-09-06T04:40:14.953Z,15.22
2022-09-06T04:42:42.115Z,15.32
2022-09-06T04:45:09.704Z,15.19
2022-09-06T04:47:36.868Z,15.11
2022-09-06T04:50:04.379Z,15.13
2022-09-06T04:52:31.499Z,15.13
2022-09-06T04:54:58.742Z,15.13
2022-09-06T04:57:25.897Z,15.19
2022-09-06T04:59:53.026Z,15.09
2022-09-06T05:02:20.373Z,15.03
2022-09-06T05:04:47.549Z,14.93
2022-09-06T05:07:14.733Z,14.90
2022-09-06T05:09:41.835Z,14.88
2022-09-06T05:12:09.132Z,14.95
2022-09-06T05:14:36.325Z,14.97
2022-09-06T05:17:03.512Z,14.96
2022-09-06T05:19:30.965Z,14.91
2022-09-06T05:21:58.210Z,14.88
2022-09-06T05:24:25.340Z,14.87
2022-09-06T05:26:52.435Z,14.88
2022-09-06T05:29:19.545Z,14.93
2022-09-06T05:31:46.736Z,14.99
2022-09-06T05:34:15.055Z,14.95
2022-09-06T05:36:42.225Z,14.96
2022-09-06T05:39:09.455Z,15.01
2022-09-06T05:41:36.727Z,15.12
2022-09-06T05:44:04.366Z,15.21
2022-09-06T05:46:31.495Z,15.16
2022-09-06T05:49:04.720Z,15.18
2022-09-06T05:51:32.740Z,15.24
2022-09-06T05:53:59.876Z,15.22
2022-09-06T05:56:27.024Z,15.23
2022-09-06T05:58:54.112Z,15.31
2022-09-06T06:01:23.812Z,15.29
2022-09-06T06:03:52.615Z,15.34
2022-09-06T06:06:20.592Z,15.38
2022-09-06T06:08:47.954Z,15.39
2022-09-06T06:11:15.237Z,15.37
2022-09-06T06:13:43.215Z,15.41
2022-09-06T06:16:12.715Z,15.47
2022-09-06T06:18:40.448Z,15.47
2022-09-06T06:21:14.669Z,15.45
2022-09-06T06:23:43.545Z,15.48
2022-09-06T06:26:12.083Z,15.52
2022-09-06T06:28:40.781Z,15.52
2022-09-06T06:31:09.267Z,15.52
2022-09-06T06:33:36.490Z,15.52
2022-09-06T06:36:13.325Z,15.62
2022-09-06T06:38:42.961Z,15.65
2022-09-06T06:41:12.110Z,15.67
2022-09-06T06:43:39.205Z,15.78
2022-09-06T06:46:10.813Z,15.76
2022-09-06T06:48:42.054Z,15.78
2022-09-06T06:51:13.915Z,15.83
2022-09-06T06:53:41.394Z,15.92
2022-09-06T06:56:25.035Z,15.98
2022-09-06T06:58:54.051Z,16.05
2022-09-06T07:01:22.334Z,16.18
2022-09-06T07:03:49.837Z,16.24
2022-09-06T07:06:17.727Z,16.24
2022-09-06T07:08:45.472Z,16.30
2022-09-06T07:11:14.490Z,16.37
2022-09-06T07:13:41.802Z,16.42
2022-09-06T07:16:13.459Z,16.36
2022-09-06T07:18:45.695Z,16.41
2022-09-06T07:24:05.410Z,16.62
2022-09-06T07:26:33.144Z,16.66
2022-09-06T07:29:02.719Z,16.77
2022-09-06T07:34:18.448Z,16.82
2022-09-06T07:36:45.561Z,16.88
2022-09-06T07:39:12.677Z,16.92
2022-09-06T07:41:39.871Z,17.05
2022-09-06T07:44:07.030Z,17.05
2022-09-06T07:46:34.554Z,17.06
2022-09-06T07:49:04.728Z,17.16
2022-09-06T07:51:32.494Z,17.27
2022-09-06T07:54:26.159Z,17.33
2022-09-06T07:56:47.066Z,17.42
2022-09-06T07:59:14.544Z,17.49
2022-09-06T08:01:42.050Z,17.52
2022-09-06T08:04:12.808Z,17.60
2022-09-06T08:09:32.860Z,17.71
2022-09-06T08:12:01.155Z,17.75
2022-09-06T08:14:28.621Z,17.83
2022-09-06T08:16:56.070Z,17.93
2022-09-06T08:19:23.365Z,17.95
2022-09-06T08:21:55.494Z,18.05
2022-09-06T08:24:22.858Z,18.16
2022-09-06T08:26:50.277Z,18.26
2022-09-06T08:29:18.856Z,18.36
2022-09-06T08:31:46.421Z,18.35
2022-09-06T08:34:14.363Z,18.29
2022-09-06T08:36:42.225Z,18.28
2022-09-06T08:39:10.089Z,18.34
2022-09-06T08:42:03.679Z,18.44
2022-09-06T08:44:56.055Z,18.52
2022-09-06T08:47:24.175Z,18.54
2022-09-06T08:49:54.896Z,18.56
2022-09-06T08:53:13.169Z,18.63
2022-09-06T08:55:42.878Z,18.71
2022-09-06T08:58:21.715Z,18.76
2022-09-06T09:00:58.395Z,18.80
2022-09-06T09:03:33.410Z,18.83
2022-09-06T09:06:03.449Z,18.87
2022-09-06T09:08:52.626Z,18.99
2022-09-06T09:11:21.808Z,19.03
2022-09-06T09:13:59.557Z,19.11
2022-09-06T09:16:27.254Z,19.23
2022-09-06T09:18:56.714Z,19.24
2022-09-06T09:21:30.169Z,19.39
2022-09-06T09:24:07.504Z,19.40
2022-09-06T09:26:56.955Z,19.52
2022-09-06T09:29:28.047Z,19.60
2022-09-06T09:31:57.262Z,19.67
2022-09-06T09:34:33.887Z,19.67
2022-09-06T09:40:30.067Z,19.83
2022-09-06T09:43:09.456Z,19.92
2022-09-06T09:45:36.552Z,20.05
2022-09-06T09:48:20.572Z,20.07
2022-09-06T09:50:47.878Z,20.07
2022-09-06T09:53:18.709Z,20.06
2022-09-06T09:55:46.925Z,20.12
2022-09-06T09:58:30.759Z,20.12
2022-09-06T10:01:12.398Z,20.14
2022-09-06T10:09:23.162Z,20.31
2022-09-06T10:11:56.796Z,20.40
2022-09-06T10:14:33.070Z,20.46
2022-09-06T10:17:00.750Z,20.51
2022-09-06T10:19:42.490Z,20.60
2022-09-06T10:22:27.901Z,20.65
2022-09-06T10:25:13.373Z,20.67
2022-09-06T10:28:10.326Z,20.73
2022-09-06T10:31:06.317Z,20.69
2022-09-06T10:33:39.504Z,20.70
2022-09-06T10:36:07.023Z,20.68
2022-09-06T10:39:03.516Z,20.76
2022-09-06T10:41:58.299Z,20.83
2022-09-06T10:44:56.334Z,20.76
2022-09-06T10:47:30.643Z,20.76
2022-09-06T10:50:00.159Z,20.74
2022-09-06T10:52:38.433Z,20.79
2022-09-06T10:55:07.521Z,20.75
2022-09-06T11:00:32.497Z,20.78
2022-09-06T11:06:04.329Z,20.96
2022-09-06T11:08:48.345Z,21.02
2022-09-06T11:11:20.815Z,21.13
2022-09-06T11:13:48.460Z,21.26
2022-09-06T11:16:23.368Z,21.31
2022-09-06T11:18:58.244Z,21.34
2022-09-06T11:21:44.064Z,21.44
2022-09-06T11:24:17.128Z,21.52
2022-09-06T11:26:58.652Z,21.57
2022-09-06T11:29:28.300Z,21.53
2022-09-06T11:32:17.049Z,21.54
2022-09-06T11:34:57.919Z,21.47
2022-09-06T11:37:30.833Z,21.48
2022-09-06T11:42:59.385Z,21.45
2022-09-06T11:45:45.658Z,21.44
2022-09-06T11:48:34.114Z,21.50
2022-09-06T11:51:07.777Z,21.48
2022-09-06T11:53:58.150Z,21.48
2022-09-06T11:56:30.804Z,21.50
2022-09-06T11:59:03.663Z,21.51
2022-09-06T12:01:30.923Z,21.45
2022-09-06T12:04:06.899Z,21.46
2022-09-06T12:07:18.026Z,21.55
2022-09-06T12:09:46.308Z,21.56
2022-09-06T12:12:46.735Z,21.55
2022-09-06T12:15:27.638Z,21.59
2022-09-06T12:17:57.539Z,21.59
2022-09-06T12:20:54.909Z,21.62
2022-09-06T12:23:37.563Z,21.66
2022-09-06T12:26:08.487Z,21.66
2022-09-06T12:28:37.791Z,21.72
2022-09-06T12:31:27.879Z,21.83
2022-09-06T12:33:56.844Z,21.85
2022-09-06T12:36:29.731Z,21.89
2022-09-06T12:39:14.500Z,21.93
2022-09-06T12:41:50.899Z,21.99
2022-09-06T12:44:30.552Z,22.03
2022-09-06T12:47:04.301Z,22.10
2022-09-06T12:49:34.450Z,22.20
2022-09-06T12:52:07.945Z,22.22
2022-09-06T12:55:01.824Z,22.21
2022-09-06T12:57:34.183Z,22.28
2022-09-06T13:00:03.175Z,22.34
2022-09-06T13:02:44.969Z,22.38
2022-09-06T13:05:14.710Z,22.46
2022-09-06T13:07:47.103Z,22.53
2022-09-06T13:10:16.740Z,22.61
2022-09-06T13:12:48.096Z,22.71
2022-09-06T13:15:29.891Z,22.71
2022-09-06T13:18:38.443Z,22.81
2022-09-06T13:21:08.899Z,22.84
2022-09-06T13:23:45.176Z,22.97
2022-09-06T13:26:12.903Z,23.11
2022-09-06T13:28:42.160Z,23.19
2022-09-06T13:31:32.412Z,23.11
2022-09-06T13:34:00.710Z,23.04
2022-09-06T13:36:31.288Z,23.06
2022-09-06T13:39:00.526Z,23.17
2022-09-06T13:41:35.719Z,23.22
2022-09-06T13:44:06.179Z,23.39
2022-09-06T13:46:38.546Z,23.45
2022-09-06T13:49:06.319Z,23.61
2022-09-06T13:51:34.751Z,23.79
2022-09-06T13:54:09.754Z,24.02
2022-09-06T13:56:37.785Z,24.16
2022-09-06T13:59:06.029Z,24.35
2022-09-06T14:01:34.418Z,24.39
2022-09-06T14:04:02.454Z,24.56
2022-09-06T14:06:32.463Z,24.98
2022-09-06T14:09:07.233Z,25.35
2022-09-06T14:11:35.733Z,25.75
2022-09-06T14:14:06.704Z,26.09
2022-09-06T14:16:36.767Z,26.19
2022-09-06T14:19:05.346Z,26.12
2022-09-06T14:21:38.746Z,26.14
2022-09-06T14:24:09.895Z,26.06
2022-09-06T14:27:20.523Z,26.06
2022-09-06T14:29:48.621Z,25.97
2022-09-06T14:32:19.311Z,26.07
2022-09-06T14:34:52.628Z,26.16
2022-09-06T14:37:21.696Z,26.15
2022-09-06T14:39:52.147Z,26.01
2022-09-06T14:42:20.777Z,25.92
2022-09-06T14:44:49.037Z,25.80
2022-09-06T14:50:02.155Z,25.73
2022-09-06T14:52:32.331Z,25.78
2022-09-06T14:55:00.320Z,25.74
2022-09-06T14:57:32.361Z,25.83
2022-09-06T15:00:06.856Z,25.98
2022-09-06T15:02:35.272Z,25.97
2022-09-06T15:05:02.983Z,25.86
2022-09-06T15:07:31.379Z,25.91
2022-09-06T15:10:00.364Z,26.10
2022-09-06T15:12:30.668Z,26.34
2022-09-06T15:14:58.056Z,26.37
2022-09-06T15:17:25.511Z,26.25
2022-09-06T15:19:56.920Z,26.09
2022-09-06T15:22:24.452Z,25.77
2022-09-06T15:24:54.697Z,25.72
2022-09-06T15:27:23.450Z,25.69
2022-09-06T15:29:54.095Z,25.78
2022-09-06T15:32:23.077Z,25.67
2022-09-06T15:34:50.433Z,25.71
2022-09-06T15:37:20.794Z,25.63
2022-09-06T15:39:48.405Z,25.45
2022-09-06T15:42:15.998Z,25.37
2022-09-06T15:44:44.797Z,25.39
2022-09-06T15:47:13.591Z,25.39
2022-09-06T15:49:44.785Z,25.54
2022-09-06T15:52:13.007Z,25.31
2022-09-06T15:55:00.678Z,25.22
2022-09-06T15:57:28.919Z,24.96
2022-09-06T15:59:57.105Z,24.73
2022-09-06T16:02:24.442Z,24.78
2022-09-06T16:04:51.996Z,24.69
2022-09-06T16:07:19.680Z,24.51
2022-09-06T16:09:47.257Z,24.31
2022-09-06T16:12:14.970Z,24.15
2022-09-06T16:14:42.943Z,24.13
2022-09-06T16:17:12.708Z,23.95
2022-09-06T16:19:40.541Z,23.92
2022-09-06T16:22:07.790Z,23.88
2022-09-06T16:24:35.315Z,23.62
2022-09-06T16:27:34.431Z,23.44
2022-09-06T16:30:09.332Z,23.48
2022-09-06T16:32:39.193Z,23.38
2022-09-06T16:35:09.964Z,23.43
2022-09-06T16:37:37.346Z,23.26
2022-09-06T16:40:06.199Z,23.27
2022-09-06T16:42:37.182Z,23.19
2022-09-06T16:45:05.358Z,23.02
2022-09-06T16:47:32.748Z,22.87
2022-09-06T16:50:00.537Z,22.88
2022-09-06T16:52:27.969Z,22.82
2022-09-06T16:55:25.535Z,22.81
2022-09-06T16:57:51.247Z,22.69
2022-09-06T17:00:21.907Z,22.65
2022-09-06T17:02:50.399Z,22.57
2022-09-06T17:09:43.192Z,22.43
2022-09-06T17:12:16.560Z,22.41
2022-09-06T17:14:44.634Z,22.44
2022-09-06T17:17:14.526Z,22.26
2022-09-06T17:19:42.068Z,22.21
2022-09-06T17:22:10.724Z,22.21
2022-09-06T17:24:39.077Z,22.16
2022-09-06T17:27:06.864Z,22.09
2022-09-06T17:29:37.192Z,21.95
2022-09-06T17:32:10.211Z,21.99
2022-09-06T17:34:38.945Z,21.95
2022-09-06T17:37:09.009Z,21.96
2022-09-06T17:39:36.742Z,21.93
2022-09-06T17:42:07.339Z,21.94
2022-09-06T17:44:37.114Z,21.97
2022-09-06T17:47:13.680Z,21.93
2022-09-06T17:49:42.673Z,21.88
2022-09-06T17:52:12.830Z,21.70
2022-09-06T17:54:40.195Z,21.66
2022-09-06T17:57:08.530Z,21.64
2022-09-06T17:59:36.391Z,21.57
2022-09-06T18:02:04.582Z,21.44
2022-09-06T18:04:33.498Z,21.35
2022-09-06T18:07:08.389Z,21.27
2022-09-06T18:09:38.594Z,21.34
2022-09-06T18:12:19.687Z,21.34
2022-09-06T18:14:47.640Z,21.30
2022-09-06T18:17:18.130Z,21.30
2022-09-06T18:19:45.575Z,21.28
2022-09-06T18:22:17.423Z,21.19
2022-09-06T18:24:47.882Z,21.17
2022-09-06T18:27:16.757Z,21.13
2022-09-06T18:29:44.275Z,21.14
2022-09-06T18:32:12.951Z,21.07
2022-09-06T18:34:41.792Z,21.03
2022-09-06T18:37:09.743Z,21.02
2022-09-06T18:39:46.657Z,21.04
2022-09-06T18:46:04.227Z,21.04
2022-09-06T18:49:27.433Z,21.04
2022-09-06T20:44:12.441Z,19.57
2022-09-06T23:47:46.508Z,18.10
